createdAt,value
2023-03-06T00:01:02.130Z,84.66
2023-03-06T00:03:30.953Z,84.39
2023-03-06T00:06:00.119Z,84.77
2023-03-06T00:08:30.032Z,84.71
2023-03-06T00:10:59.133Z,84.75
2023-03-06T00:13:30.760Z,84.69
2023-03-06T00:16:01.818Z,84.66
2023-03-06T00:18:30.705Z,84.07
2023-03-06T00:20:59.543Z,84.12
2023-03-06T00:23:28.502Z,84.30
2023-03-06T00:25:57.218Z,84.54
2023-03-06T00:28:26.718Z,84.33
2023-03-06T00:30:55.444Z,84.06
2023-03-06T00:33:24.082Z,84.81
2023-03-06T00:35:55.076Z,84.38
2023-03-06T00:38:23.995Z,84.69
2023-03-06T00:40:52.677Z,85.02
2023-03-06T00:43:22.842Z,84.60
2023-03-06T00:45:51.584Z,84.64
2023-03-06T00:48:20.210Z,85.03
2023-03-06T00:50:49.019Z,84.54
2023-03-06T00:53:17.618Z,84.66
2023-03-06T00:55:46.914Z,84.74
2023-03-06T00:58:15.788Z,84.83
2023-03-06T01:00:44.892Z,85.10
2023-03-06T01:03:13.835Z,84.70
2023-03-06T01:05:42.909Z,84.99
2023-03-06T01:08:11.834Z,84.74
2023-03-06T01:10:41.452Z,84.80
2023-03-06T01:13:10.972Z,85.14
2023-03-06T01:15:39.671Z,85.27
2023-03-06T01:18:11.214Z,85.82
2023-03-06T01:20:40.074Z,85.07
2023-03-06T01:23:09.519Z,85.26
2023-03-06T01:25:37.990Z,85.31
2023-03-06T01:28:07.009Z,85.52
2023-03-06T01:30:37.361Z,85.57
2023-03-06T01:33:06.257Z,85.31
2023-03-06T01:35:35.403Z,86.25
2023-03-06T01:38:04.138Z,86.13
2023-03-06T01:40:34.633Z,86.18
2023-03-06T01:43:43.020Z,85.67
2023-03-06T01:46:39.574Z,85.83
2023-03-06T01:49:14.602Z,85.92
2023-03-06T01:51:54.735Z,85.92
2023-03-06T01:54:35.875Z,86.21
2023-03-06T01:57:10.534Z,85.98
2023-03-06T01:59:41.316Z,85.80
2023-03-06T02:02:12.825Z,86.00
2023-03-06T02:04:44.775Z,85.46
2023-03-06T02:07:16.038Z,85.78
2023-03-06T02:09:44.748Z,85.12
2023-03-06T02:12:18.079Z,85.48
2023-03-06T02:14:47.946Z,85.43
2023-03-06T02:17:20.678Z,85.10
2023-03-06T02:20:08.612Z,85.91
2023-03-06T02:22:55.249Z,85.16
2023-03-06T02:25:34.739Z,85.16
2023-03-06T02:28:05.398Z,84.98
2023-03-06T02:30:34.565Z,84.90
2023-03-06T02:33:04.996Z,84.81
2023-03-06T02:35:39.252Z,84.19
2023-03-06T02:38:12.643Z,83.94
2023-03-06T02:40:47.820Z,84.08
2023-03-06T02:43:21.156Z,83.64
2023-03-06T02:45:51.618Z,83.25
2023-03-06T02:48:21.844Z,83.12
2023-03-06T02:50:50.460Z,83.14
2023-03-06T02:53:20.873Z,82.87
2023-03-06T02:55:50.420Z,82.75
2023-03-06T02:58:22.534Z,82.54
2023-03-06T03:00:51.557Z,81.96
2023-03-06T03:03:21.993Z,82.21
2023-03-06T03:05:50.669Z,82.17
2023-03-06T03:08:25.994Z,81.75
2023-03-06T03:10:59.171Z,81.45
2023-03-06T03:13:34.580Z,82.07
2023-03-06T03:16:09.721Z,81.81
2023-03-06T03:18:38.499Z,81.88
2023-03-06T03:21:13.435Z,81.89
2023-03-06T03:23:42.781Z,81.35
2023-03-06T03:26:13.759Z,81.00
2023-03-06T03:28:46.227Z,81.05
2023-03-06T03:31:18.641Z,80.93
2023-03-06T03:33:47.565Z,80.75
2023-03-06T03:36:18.976Z,80.47
2023-03-06T03:38:50.534Z,80.25
2023-03-06T03:41:19.955Z,79.84
2023-03-06T03:43:49.224Z,79.67
2023-03-06T03:46:18.826Z,78.97
2023-03-06T03:48:48.063Z,79.10
2023-03-06T03:51:18.270Z,78.47
2023-03-06T03:53:51.507Z,78.51
2023-03-06T03:56:24.079Z,78.64
2023-03-06T03:59:07.789Z,77.81
2023-03-06T04:01:43.545Z,77.42
2023-03-06T04:04:12.374Z,78.04
2023-03-06T04:06:42.812Z,78.16
2023-03-06T04:09:12.266Z,77.42
2023-03-06T04:11:41.413Z,78.08
2023-03-06T04:14:13.354Z,77.40
2023-03-06T04:16:42.141Z,76.83
2023-03-06T04:19:12.313Z,77.32
2023-03-06T04:21:41.643Z,77.76
2023-03-06T04:24:10.781Z,77.36
2023-03-06T04:26:39.637Z,77.04
2023-03-06T04:29:08.514Z,77.62
2023-03-06T04:31:37.308Z,77.20
2023-03-06T04:34:06.097Z,77.31
2023-03-06T04:36:36.458Z,76.46
2023-03-06T04:39:09.387Z,76.24
2023-03-06T04:41:38.487Z,76.58
2023-03-06T04:44:07.696Z,75.84
2023-03-06T04:46:36.998Z,75.43
2023-03-06T04:49:05.787Z,75.51
2023-03-06T04:51:37.566Z,75.82
2023-03-06T04:54:06.745Z,76.11
2023-03-06T04:56:35.848Z,75.88
2023-03-06T04:59:05.400Z,75.61
2023-03-06T05:01:34.163Z,75.75
2023-03-06T05:04:03.056Z,75.64
2023-03-06T05:06:32.074Z,75.31
2023-03-06T05:09:01.088Z,75.21
2023-03-06T05:11:32.074Z,74.99
2023-03-06T05:14:03.906Z,74.99
2023-03-06T05:16:32.764Z,74.94
2023-03-06T05:19:01.674Z,74.77
2023-03-06T05:21:31.199Z,74.93
2023-03-06T05:24:00.242Z,74.70
2023-03-06T05:26:28.844Z,74.53
2023-03-06T05:28:57.926Z,74.53
2023-03-06T05:31:26.837Z,74.98
2023-03-06T05:33:56.045Z,75.29
2023-03-06T05:36:24.826Z,75.46
2023-03-06T05:38:54.168Z,76.33
2023-03-06T05:41:23.004Z,76.46
2023-03-06T05:43:53.891Z,76.58
2023-03-06T05:46:22.970Z,77.25
2023-03-06T05:48:53.990Z,77.01
2023-03-06T05:51:22.913Z,77.30
2023-03-06T05:53:51.630Z,77.44
2023-03-06T05:56:20.410Z,77.37
2023-03-06T05:58:49.903Z,77.62
2023-03-06T06:01:21.968Z,77.44
2023-03-06T06:03:50.789Z,77.79
2023-03-06T06:06:19.836Z,77.38
2023-03-06T06:08:48.919Z,77.08
2023-03-06T06:11:19.127Z,77.15
2023-03-06T06:13:50.255Z,77.05
2023-03-06T06:16:20.184Z,77.45
2023-03-06T06:18:49.248Z,77.15
2023-03-06T06:21:18.308Z,76.88
2023-03-06T06:23:47.732Z,77.33
2023-03-06T06:26:16.567Z,77.35
2023-03-06T06:28:45.240Z,78.08
2023-03-06T06:31:14.855Z,77.38
2023-03-06T06:33:44.631Z,77.19
2023-03-06T06:36:20.812Z,77.37
2023-03-06T06:38:50.367Z,77.12
2023-03-06T06:41:52.881Z,77.02
2023-03-06T06:44:09.486Z,76.71
2023-03-06T06:49:27.567Z,76.96
2023-03-06T06:51:56.452Z,76.81
2023-03-06T06:54:25.708Z,77.38
2023-03-06T06:56:54.897Z,76.88
2023-03-06T06:59:24.528Z,77.14
2023-03-06T07:01:53.924Z,76.71
2023-03-06T07:04:22.718Z,76.58
2023-03-06T07:06:51.699Z,76.62
2023-03-06T07:09:21.038Z,76.48
2023-03-06T07:11:49.803Z,76.91
2023-03-06T07:14:18.869Z,77.02
2023-03-06T07:16:47.695Z,76.88
2023-03-06T07:19:16.588Z,76.70
2023-03-06T07:21:45.232Z,77.18
2023-03-06T07:24:13.942Z,77.07
2023-03-06T07:26:47.840Z,77.00
2023-03-06T07:29:17.066Z,76.62
2023-03-06T07:31:46.283Z,76.36
2023-03-06T07:34:16.336Z,76.48
2023-03-06T07:36:45.221Z,76.71
2023-03-06T07:39:13.929Z,77.16
2023-03-06T07:41:42.858Z,77.33
2023-03-06T07:44:11.894Z,77.61
2023-03-06T07:46:40.762Z,77.49
2023-03-06T07:49:09.734Z,78.09
2023-03-06T07:51:38.484Z,77.74
2023-03-06T07:54:07.339Z,77.97
2023-03-06T07:56:36.354Z,78.03
2023-03-06T07:59:05.035Z,77.56
2023-03-06T08:01:34.037Z,77.68
2023-03-06T08:04:02.905Z,77.83
2023-03-06T08:06:31.803Z,77.42
2023-03-06T08:09:01.302Z,77.41
2023-03-06T08:11:31.584Z,77.65
2023-03-06T08:14:00.718Z,77.89
2023-03-06T08:16:32.618Z,77.88
2023-03-06T08:19:01.334Z,78.19
2023-03-06T08:21:33.261Z,78.22
2023-03-06T08:24:02.243Z,78.28
2023-03-06T08:26:33.650Z,78.54
2023-03-06T08:29:03.628Z,78.33
2023-03-06T08:31:32.304Z,79.32
2023-03-06T08:34:06.809Z,79.51
2023-03-06T08:36:35.649Z,79.16
2023-03-06T08:39:05.340Z,79.58
2023-03-06T08:41:34.992Z,80.12
2023-03-06T08:44:04.378Z,80.34
2023-03-06T08:46:34.187Z,80.59
2023-03-06T08:49:03.431Z,81.06
2023-03-06T08:51:32.308Z,81.44
2023-03-06T08:54:01.452Z,81.71
2023-03-06T08:56:34.986Z,81.71
2023-03-06T08:59:06.589Z,82.27
2023-03-06T09:01:38.272Z,82.78
2023-03-06T09:04:11.522Z,82.72
2023-03-06T09:06:43.439Z,83.45
2023-03-06T09:09:13.185Z,83.67
2023-03-06T09:11:41.829Z,84.26
2023-03-06T09:14:10.759Z,84.47
2023-03-06T09:16:39.780Z,84.83
2023-03-06T09:19:08.687Z,84.77
2023-03-06T09:21:37.530Z,84.93
2023-03-06T09:24:06.531Z,85.39
2023-03-06T09:26:45.649Z,85.19
2023-03-06T09:29:16.955Z,85.53
2023-03-06T09:31:46.208Z,85.90
2023-03-06T09:34:15.104Z,85.70
2023-03-06T09:36:56.474Z,85.54
2023-03-06T09:39:27.126Z,85.69
2023-03-06T09:41:58.315Z,85.91
2023-03-06T09:44:33.079Z,85.94
2023-03-06T09:47:11.672Z,86.23
2023-03-06T09:50:31.031Z,86.37
2023-03-06T09:53:17.970Z,86.30
2023-03-06T09:56:15.474Z,86.44
2023-03-06T09:58:49.880Z,86.43
2023-03-06T10:01:26.876Z,86.48
2023-03-06T10:03:57.595Z,86.17
2023-03-06T10:06:50.167Z,86.00
2023-03-06T10:09:27.979Z,85.89
2023-03-06T10:12:07.567Z,85.88
2023-03-06T10:14:46.656Z,86.01
2023-03-06T10:17:20.089Z,85.83
2023-03-06T10:19:50.293Z,85.71
2023-03-06T10:22:40.202Z,85.54
2023-03-06T10:25:23.441Z,85.56
2023-03-06T10:28:17.506Z,85.42
2023-03-06T10:31:08.609Z,85.35
2023-03-06T10:33:58.212Z,85.43
2023-03-06T10:36:29.185Z,85.28
2023-03-06T10:38:59.788Z,85.37
2023-03-06T10:41:36.143Z,85.46
2023-03-06T10:44:05.023Z,85.52
2023-03-06T10:46:43.055Z,85.22
2023-03-06T10:49:30.926Z,84.81
2023-03-06T10:52:08.333Z,84.59
2023-03-06T10:54:40.037Z,84.34
2023-03-06T10:57:30.443Z,84.31
2023-03-06T11:00:01.912Z,83.88
2023-03-06T11:02:34.323Z,83.15
2023-03-06T11:05:04.386Z,82.26
2023-03-06T11:07:35.699Z,82.15
2023-03-06T11:10:19.861Z,82.01
2023-03-06T11:13:02.254Z,81.28
2023-03-06T11:15:31.541Z,81.58
2023-03-06T11:18:31.681Z,80.63
2023-03-06T11:21:00.502Z,80.70
2023-03-06T11:23:47.880Z,80.31
2023-03-06T11:26:20.948Z,80.54
2023-03-06T11:28:58.545Z,80.06
2023-03-06T11:31:38.648Z,80.55
2023-03-06T11:34:13.304Z,80.54
2023-03-06T11:37:07.962Z,80.17
2023-03-06T11:40:00.151Z,80.01
2023-03-06T11:42:40.254Z,80.08
2023-03-06T11:45:23.829Z,80.29
2023-03-06T11:48:18.311Z,79.94
2023-03-06T11:50:56.214Z,80.11
2023-03-06T11:53:33.892Z,79.93
2023-03-06T11:56:15.134Z,79.87
2023-03-06T11:59:14.476Z,80.28
2023-03-06T12:02:01.339Z,80.44
2023-03-06T12:04:52.038Z,80.51
2023-03-06T12:07:30.357Z,80.45
2023-03-06T12:10:14.482Z,80.20
2023-03-06T12:13:26.837Z,79.77
2023-03-06T12:16:25.699Z,79.81
2023-03-06T12:19:12.637Z,80.54
2023-03-06T12:22:03.803Z,79.91
2023-03-06T12:25:10.481Z,80.27
2023-03-06T12:28:26.985Z,80.03
2023-03-06T12:31:13.866Z,79.85
2023-03-06T12:34:05.835Z,80.02
2023-03-06T12:36:48.157Z,79.72
2023-03-06T12:39:31.788Z,79.81
2023-03-06T12:42:23.261Z,80.04
2023-03-06T12:45:24.117Z,80.22
2023-03-06T12:47:57.931Z,80.30
2023-03-06T12:50:33.384Z,80.38
2023-03-06T12:53:06.364Z,81.18
2023-03-06T12:55:54.002Z,80.93
2023-03-06T12:58:31.600Z,81.05
2023-03-06T13:01:24.915Z,81.08
2023-03-06T13:04:50.585Z,81.14
2023-03-06T13:07:57.496Z,80.98
2023-03-06T13:10:34.290Z,81.07
2023-03-06T13:13:23.944Z,81.29
2023-03-06T13:16:19.572Z,81.35
2023-03-06T13:18:54.587Z,80.73
2023-03-06T13:21:46.666Z,81.61
2023-03-06T13:24:22.723Z,81.49
2023-03-06T13:26:58.063Z,81.25
2023-03-06T13:29:38.390Z,81.12
2023-03-06T13:32:20.556Z,81.36
2023-03-06T13:34:52.485Z,81.23
2023-03-06T13:37:26.079Z,81.38
2023-03-06T13:40:02.330Z,81.16
2023-03-06T13:42:38.840Z,80.66
2023-03-06T13:45:28.548Z,80.39
2023-03-06T13:50:49.393Z,79.79
2023-03-06T13:53:41.562Z,79.61
2023-03-06T13:56:29.756Z,79.42
2023-03-06T13:59:25.665Z,78.76
2023-03-06T14:02:32.068Z,78.05
2023-03-06T14:05:03.203Z,78.34
2023-03-06T14:07:52.873Z,78.11
2023-03-06T14:10:26.521Z,78.24
2023-03-06T14:13:35.161Z,78.00
2023-03-06T14:16:18.627Z,77.87
2023-03-06T14:18:53.045Z,77.83
2023-03-06T14:21:40.714Z,76.49
2023-03-06T14:24:19.670Z,76.43
2023-03-06T14:26:52.984Z,75.66
2023-03-06T14:29:29.745Z,75.62
2023-03-06T14:31:59.720Z,75.15
2023-03-06T14:34:31.053Z,75.75
2023-03-06T14:37:03.493Z,75.88
2023-03-06T14:39:41.378Z,75.44
2023-03-06T14:42:20.298Z,75.83
2023-03-06T14:45:00.736Z,75.65
2023-03-06T14:47:34.336Z,75.12
2023-03-06T14:50:22.702Z,75.12
2023-03-06T14:53:23.200Z,75.28
2023-03-06T14:55:58.767Z,75.27
2023-03-06T14:58:58.642Z,75.60
2023-03-06T15:01:38.157Z,75.48
2023-03-06T15:04:27.032Z,75.47
2023-03-06T15:06:57.496Z,75.69
2023-03-06T15:09:35.580Z,75.36
2023-03-06T15:12:10.052Z,74.52
2023-03-06T15:14:40.355Z,74.01
2023-03-06T15:17:18.522Z,73.76
2023-03-06T15:19:55.481Z,73.85
2023-03-06T15:22:41.035Z,73.55
2023-03-06T15:25:12.890Z,72.98
2023-03-06T15:27:41.800Z,73.13
2023-03-06T15:30:25.508Z,73.06
2023-03-06T15:33:29.524Z,72.29
2023-03-06T15:36:06.859Z,72.58
2023-03-06T15:38:43.895Z,72.19
2023-03-06T15:41:34.374Z,71.49
2023-03-06T15:44:09.739Z,72.39
2023-03-06T15:46:38.439Z,71.56
2023-03-06T15:49:15.183Z,71.67
2023-03-06T15:51:44.125Z,72.02
2023-03-06T15:54:12.991Z,71.20
2023-03-06T15:56:44.596Z,71.84
2023-03-06T15:59:32.132Z,71.53
2023-03-06T16:02:14.406Z,71.75
2023-03-06T16:04:43.412Z,72.24
2023-03-06T16:07:13.240Z,71.72
2023-03-06T16:09:43.469Z,72.16
2023-03-06T16:12:22.222Z,72.07
2023-03-06T16:14:51.128Z,72.48
2023-03-06T16:17:20.430Z,72.50
2023-03-06T16:19:49.115Z,72.34
2023-03-06T16:22:17.948Z,72.70
2023-03-06T16:24:47.203Z,72.78
2023-03-06T16:27:20.600Z,72.46
2023-03-06T16:29:49.085Z,73.01
2023-03-06T16:32:17.808Z,72.95
2023-03-06T16:34:46.687Z,73.14
2023-03-06T16:37:15.480Z,72.98
2023-03-06T16:39:44.960Z,73.44
2023-03-06T16:42:13.808Z,73.46
2023-03-06T16:44:43.345Z,73.27
2023-03-06T16:47:13.188Z,73.29
2023-03-06T16:49:41.969Z,73.61
2023-03-06T16:52:12.171Z,74.14
2023-03-06T16:54:41.665Z,73.78
2023-03-06T16:57:15.298Z,74.32
2023-03-06T16:59:43.986Z,74.27
2023-03-06T17:02:13.614Z,74.39
2023-03-06T17:04:42.350Z,74.75
2023-03-06T17:07:11.197Z,74.51
2023-03-06T17:09:40.001Z,74.59
2023-03-06T17:12:09.701Z,75.02
2023-03-06T17:14:39.242Z,74.79
2023-03-06T17:17:08.165Z,75.03
2023-03-06T17:19:37.568Z,74.76
2023-03-06T17:22:06.499Z,75.26
2023-03-06T17:24:37.083Z,74.97
2023-03-06T17:27:05.595Z,75.45
2023-03-06T17:29:34.250Z,74.83
2023-03-06T17:32:04.286Z,75.35
2023-03-06T17:34:33.226Z,75.75
2023-03-06T17:37:04.812Z,76.01
2023-03-06T17:39:36.020Z,75.60
2023-03-06T17:42:06.284Z,75.70
2023-03-06T17:44:35.571Z,75.85
2023-03-06T17:47:05.356Z,76.58
2023-03-06T17:49:34.215Z,76.49
2023-03-06T17:52:06.940Z,76.17
2023-03-06T17:54:35.967Z,76.55
2023-03-06T17:57:06.364Z,76.78
2023-03-06T17:59:35.358Z,76.88
2023-03-06T18:02:04.290Z,76.47
2023-03-06T18:04:32.860Z,77.42
2023-03-06T18:07:01.954Z,77.09
2023-03-06T18:09:30.593Z,77.08
2023-03-06T18:11:59.453Z,76.62
2023-03-06T18:14:28.239Z,76.84
2023-03-06T18:16:56.976Z,77.06
2023-03-06T18:19:25.673Z,77.25
2023-03-06T18:21:54.154Z,77.28
2023-03-06T18:24:23.065Z,77.13
2023-03-06T18:26:52.096Z,77.09
2023-03-06T18:29:20.812Z,77.02
2023-03-06T18:31:51.236Z,76.75
2023-03-06T18:34:19.872Z,77.52
2023-03-06T18:36:51.477Z,77.52
2023-03-06T18:39:22.212Z,77.11
2023-03-06T18:41:51.181Z,77.02
2023-03-06T18:44:19.873Z,77.37
2023-03-06T18:46:48.260Z,77.85
2023-03-06T18:49:17.047Z,76.88
2023-03-06T18:51:45.757Z,76.86
2023-03-06T18:54:14.278Z,77.15
2023-03-06T18:56:45.324Z,77.37
2023-03-06T18:59:18.633Z,77.16
2023-03-06T19:01:48.700Z,77.84
2023-03-06T19:04:17.590Z,78.51
2023-03-06T19:06:48.677Z,78.58
2023-03-06T19:09:17.598Z,77.30
2023-03-06T19:11:47.538Z,78.51
2023-03-06T19:14:16.729Z,78.04
2023-03-06T19:16:45.549Z,77.38
2023-03-06T19:19:14.296Z,77.86
2023-03-06T19:21:43.304Z,78.05
2023-03-06T19:24:14.801Z,78.14
2023-03-06T19:26:44.038Z,78.72
2023-03-06T19:29:12.963Z,78.03
2023-03-06T19:31:42.882Z,77.92
2023-03-06T19:34:11.765Z,78.71
2023-03-06T19:36:41.403Z,78.40
2023-03-06T19:39:11.685Z,78.08
2023-03-06T19:41:40.365Z,78.70
2023-03-06T19:44:12.993Z,78.64
2023-03-06T19:46:41.788Z,78.35
2023-03-06T19:49:16.638Z,79.02
2023-03-06T19:51:45.675Z,77.92
2023-03-06T19:54:15.169Z,79.46
2023-03-06T19:56:43.996Z,78.25
2023-03-06T19:59:12.730Z,79.55
2023-03-06T20:01:41.723Z,78.45
2023-03-06T20:04:10.737Z,78.63
2023-03-06T20:06:39.669Z,79.36
2023-03-06T20:09:10.216Z,78.72
2023-03-06T20:11:39.914Z,78.54
2023-03-06T20:14:09.869Z,79.16
2023-03-06T20:16:39.184Z,78.92
2023-03-06T20:19:09.396Z,79.43
2023-03-06T20:21:39.257Z,79.81
2023-03-06T20:24:10.576Z,79.17
2023-03-06T20:26:39.553Z,79.58
2023-03-06T20:29:08.300Z,79.54
2023-03-06T20:31:37.578Z,78.76
2023-03-06T20:34:06.685Z,79.69
2023-03-06T20:36:39.952Z,79.74
2023-03-06T20:39:12.115Z,79.26
2023-03-06T20:41:41.171Z,78.87
2023-03-06T20:44:13.563Z,79.86
2023-03-06T20:46:42.640Z,78.56
2023-03-06T20:49:16.201Z,79.42
2023-03-06T20:51:45.039Z,79.24
2023-03-06T20:54:15.958Z,79.78
2023-03-06T20:56:49.127Z,79.74
2023-03-06T20:59:18.091Z,80.08
2023-03-06T21:01:48.567Z,80.01
2023-03-06T21:04:19.797Z,79.23
2023-03-06T21:06:48.555Z,79.29
2023-03-06T21:09:18.504Z,79.02
2023-03-06T21:11:47.441Z,80.53
2023-03-06T21:14:16.957Z,79.98
2023-03-06T21:16:45.722Z,79.56
2023-03-06T21:19:14.578Z,79.98
2023-03-06T21:21:43.360Z,79.70
2023-03-06T21:24:12.342Z,79.68
2023-03-06T21:26:41.043Z,79.98
2023-03-06T21:29:10.502Z,79.40
2023-03-06T21:31:42.156Z,80.21
2023-03-06T21:34:12.261Z,80.34
2023-03-06T21:36:41.163Z,79.47
2023-03-06T21:39:13.001Z,79.42
2023-03-06T21:41:42.004Z,79.63
2023-03-06T21:44:12.941Z,80.13
2023-03-06T21:46:41.751Z,79.56
2023-03-06T21:49:10.407Z,80.24
2023-03-06T21:51:39.204Z,79.82
2023-03-06T21:54:10.351Z,80.52
2023-03-06T21:56:38.958Z,80.19
2023-03-06T21:59:07.843Z,80.57
2023-03-06T22:01:36.624Z,80.72
2023-03-06T22:04:05.737Z,80.67
2023-03-06T22:06:34.402Z,80.16
2023-03-06T22:09:05.028Z,80.10
2023-03-06T22:11:37.604Z,81.18
2023-03-06T22:14:07.127Z,80.44
2023-03-06T22:16:35.976Z,80.37
2023-03-06T22:19:04.905Z,81.05
2023-03-06T22:21:33.761Z,80.81
2023-03-06T22:24:02.605Z,80.66
2023-03-06T22:26:31.641Z,80.60
2023-03-06T22:29:00.413Z,81.45
2023-03-06T22:31:29.955Z,81.00
2023-03-06T22:34:01.185Z,81.32
2023-03-06T22:36:33.281Z,81.25
2023-03-06T22:39:05.019Z,80.85
2023-03-06T22:41:33.757Z,81.48
2023-03-06T22:44:03.278Z,81.59
2023-03-06T22:46:34.738Z,81.42
2023-03-06T22:49:03.975Z,81.78
2023-03-06T22:51:32.976Z,81.27
2023-03-06T22:54:01.903Z,81.24
2023-03-06T22:56:30.866Z,81.89
2023-03-06T22:59:00.394Z,81.06
2023-03-06T23:01:31.834Z,81.07
2023-03-06T23:04:03.038Z,80.85
2023-03-06T23:06:34.668Z,80.79
2023-03-06T23:09:09.480Z,81.03
2023-03-06T23:11:57.079Z,81.07
2023-03-06T23:14:44.363Z,81.64
2023-03-06T23:17:31.821Z,81.50
2023-03-06T23:20:19.158Z,81.41
2023-03-06T23:23:06.541Z,81.50
2023-03-06T23:25:45.033Z,81.68
2023-03-06T23:28:13.859Z,81.99
2023-03-06T23:30:43.381Z,81.92
2023-03-06T23:33:12.202Z,82.25
2023-03-06T23:35:41.091Z,82.49
2023-03-06T23:38:09.941Z,81.41
2023-03-06T23:40:40.145Z,82.17
2023-03-06T23:43:09.209Z,81.74
2023-03-06T23:45:40.823Z,81.52
2023-03-06T23:48:09.602Z,81.86
2023-03-06T23:50:41.048Z,81.48
2023-03-06T23:53:09.589Z,81.79
2023-03-06T23:55:49.064Z,81.61
2023-03-06T23:58:19.494Z,82.41
